createdAt,value
2018-04-24T10:18:25.354Z,99.90
2018-04-24T10:20:51.265Z,99.90
2018-04-24T10:23:18.581Z,99.90
2018-04-24T10:25:45.212Z,99.90
2018-04-24T10:28:11.111Z,99.90
2018-04-24T10:30:37.779Z,99.90
2018-04-24T10:33:03.667Z,99.90
2018-04-24T10:35:29.594Z,99.90
2018-04-24T10:37:55.546Z,99.90
2018-04-24T10:40:21.437Z,99.90
2018-04-24T10:42:47.346Z,99.90
2018-04-24T10:45:13.262Z,99.90
2018-04-24T10:47:39.933Z,99.90
2018-04-24T10:50:05.829Z,99.90
2018-04-24T10:52:31.800Z,99.90
2018-04-24T10:54:57.686Z,99.90
2018-04-24T10:57:23.596Z,99.90
2018-04-24T10:59:49.511Z,99.90
2018-04-24T11:02:15.448Z,99.90
2018-04-24T11:04:41.327Z,98.10
2018-04-24T11:07:07.258Z,89.80
2018-04-24T11:09:33.155Z,76.40
2018-04-24T11:11:59.112Z,71.20
2018-04-24T11:14:25.031Z,69.50
2018-04-24T11:16:50.941Z,64.40
2018-04-24T11:19:17.623Z,63.60
2018-04-24T11:21:43.523Z,63.60
2018-04-24T11:24:10.236Z,61.90
2018-04-24T11:26:36.148Z,62.00
2018-04-24T11:29:02.050Z,60.80
2018-04-24T11:31:28.768Z,58.10
2018-04-24T11:33:54.728Z,58.00
2018-04-24T11:36:21.478Z,56.20
2018-04-24T11:38:48.201Z,55.00
2018-04-24T11:41:14.169Z,55.00
2018-04-24T11:43:40.911Z,56.30
2018-04-24T11:46:06.870Z,56.40
2018-04-24T11:48:33.617Z,54.90
2018-04-24T11:51:00.322Z,56.80
2018-04-24T11:53:26.325Z,56.80
2018-04-24T11:55:52.304Z,56.80
2018-04-24T11:58:18.314Z,57.50
2018-04-24T12:00:44.809Z,53.90
2018-04-24T12:03:10.816Z,56.10
2018-04-24T12:05:36.812Z,53.80
2018-04-24T12:08:02.783Z,54.40
2018-04-24T12:10:28.784Z,52.40
2018-04-24T12:12:54.753Z,53.00
2018-04-24T12:15:20.765Z,53.20
2018-04-24T12:17:46.756Z,53.00
2018-04-24T12:20:12.756Z,53.90
2018-04-24T12:22:38.723Z,54.00
2018-04-24T12:25:04.684Z,51.70
2018-04-24T12:27:31.421Z,52.90
2018-04-24T12:29:57.381Z,52.70
2018-04-24T12:32:23.377Z,50.50
2018-04-24T12:34:49.349Z,52.00
2018-04-24T12:37:16.082Z,55.90
2018-04-24T12:39:42.027Z,55.90
2018-04-24T12:42:08.054Z,51.80
2018-04-24T12:44:34.134Z,52.20
2018-04-24T12:47:00.141Z,51.70
2018-04-24T12:49:26.869Z,54.40
2018-04-24T12:51:52.896Z,54.70
2018-04-24T12:54:19.612Z,51.80
2018-04-24T12:56:45.564Z,52.00
2018-04-24T12:59:11.623Z,51.20
2018-04-24T13:01:37.584Z,52.30
2018-04-24T13:04:03.605Z,51.30
2018-04-24T13:06:29.564Z,53.50
2018-04-24T13:08:55.526Z,51.50
2018-04-24T13:11:21.518Z,53.80
2018-04-24T13:13:47.487Z,54.50
2018-04-24T13:16:14.208Z,54.00
2018-04-24T13:18:40.168Z,53.90
2018-04-24T13:21:06.912Z,54.50
2018-04-24T13:23:32.867Z,54.60
2018-04-24T13:25:59.600Z,52.40
2018-04-24T13:28:25.548Z,52.50
2018-04-24T13:30:52.251Z,54.40
2018-04-24T13:33:18.257Z,54.30
2018-04-24T13:35:44.220Z,56.00
2018-04-24T13:38:10.202Z,56.30
2018-04-24T13:40:36.165Z,55.80
2018-04-24T13:43:02.181Z,56.00
2018-04-24T13:45:28.894Z,55.10
2018-04-24T13:47:54.819Z,55.20
2018-04-24T13:50:20.703Z,58.20
2018-04-24T13:52:47.376Z,55.80
2018-04-24T13:55:13.285Z,55.20
2018-04-24T13:57:39.206Z,55.40
2018-04-24T14:00:05.172Z,56.70
2018-04-24T14:02:31.860Z,56.90
2018-04-24T14:04:57.764Z,56.80
2018-04-24T14:07:24.427Z,56.70
2018-04-24T14:09:50.326Z,56.70
2018-04-24T14:12:17.601Z,55.80
2018-04-24T14:14:43.525Z,55.40
2018-04-24T14:17:09.460Z,56.10
2018-04-24T14:19:35.360Z,56.10
2018-04-24T14:22:01.251Z,55.90
2018-04-24T14:24:27.917Z,55.30
2018-04-24T14:26:53.816Z,54.70
2018-04-24T14:29:19.764Z,56.10
2018-04-24T14:31:46.478Z,56.50
2018-04-24T14:34:12.421Z,56.40
2018-04-24T14:36:38.304Z,54.30
2018-04-24T14:39:05.086Z,53.20
2018-04-24T14:41:31.715Z,52.50
2018-04-24T14:43:57.607Z,52.60
2018-04-24T14:46:23.545Z,52.80
2018-04-24T14:48:50.243Z,54.20
2018-04-24T14:51:16.867Z,53.70
2018-04-24T14:53:43.527Z,53.00
2018-04-24T14:56:09.423Z,52.90
2018-04-24T14:58:35.351Z,52.70
2018-04-24T15:01:01.279Z,53.40
2018-04-24T15:03:27.208Z,54.00
2018-04-24T15:05:53.094Z,54.10
2018-04-24T15:08:19.715Z,56.60
2018-04-24T15:10:45.663Z,56.60
2018-04-24T15:13:12.338Z,56.80
2018-04-24T15:15:38.255Z,56.60
2018-04-24T15:18:04.915Z,55.20
2018-04-24T15:20:31.578Z,56.90
2018-04-24T15:22:58.241Z,55.90
2018-04-24T15:25:24.140Z,55.80
2018-04-24T15:27:50.773Z,58.00
2018-04-24T15:30:16.691Z,57.60
2018-04-24T15:32:42.600Z,58.60
2018-04-24T15:35:08.543Z,58.70
2018-04-24T15:37:34.451Z,59.40
2018-04-24T15:40:00.414Z,59.70
2018-04-24T15:42:26.422Z,60.70
2018-04-24T15:44:52.385Z,68.60
2018-04-24T15:47:18.378Z,64.00
2018-04-24T15:49:45.743Z,67.50
2018-04-24T15:52:12.476Z,65.70
2018-04-24T15:54:38.476Z,65.60
